Terminal Aerodrome Forecast
Issued by NWS

Home | Current Version | Previous Version | Text Only | Print | Product List | Glossary On
Versions: 1 2 3 4 5 6 7 8 9 10 11 12 13 14 15 16 17 18 19 20 21 22 23 24
000
FTUS44 KSJT 291400 AAA
TAFBBD
TAF AMD
KBBD 291437Z 2915/3012 15007KT P6SM SCT250
     FM291700 17013KT P6SM BKN050
     FM292100 14010KT P6SM SCT250
     FM300700 14010KT P6SM BKN015=

USA.gov is the U.S. government's official web portal to all federal, state and local government web resources and services.